sensor_id;sensor_type;location;lat;lon;timestamp;pressure;altitude;pressure_sealevel;temperature;humidity
57644;BME280;43474;46.510;6.686;2023-02-15T00:01:25;97801.94;;;0.63;100.00
57644;BME280;43474;46.510;6.686;2023-02-15T00:03:51;97777.06;;;0.59;100.00
57644;BME280;43474;46.510;6.686;2023-02-15T00:06:17;97788.47;;;0.68;100.00
57644;BME280;43474;46.510;6.686;2023-02-15T00:08:44;97786.56;;;0.70;100.00
57644;BME280;43474;46.510;6.686;2023-02-15T00:11:11;97781.59;;;0.67;100.00
57644;BME280;43474;46.510;6.686;2023-02-15T00:13:38;97779.97;;;0.66;100.00
57644;BME280;43474;46.510;6.686;2023-02-15T00:16:07;97791.06;;;0.77;100.00
57644;BME280;43474;46.510;6.686;2023-02-15T00:18:33;97779.56;;;0.70;100.00
57644;BME280;43474;46.510;6.686;2023-02-15T00:21:03;97772.00;;;0.67;100.00
57644;BME280;43474;46.510;6.686;2023-02-15T00:23:30;97773.53;;;0.60;100.00
57644;BME280;43474;46.510;6.686;2023-02-15T00:26:06;97781.75;;;0.65;100.00
57644;BME280;43474;46.510;6.686;2023-02-15T00:28:32;97764.84;;;0.60;100.00
57644;BME280;43474;46.510;6.686;2023-02-15T00:31:05;97771.31;;;0.65;100.00
57644;BME280;43474;46.510;6.686;2023-02-15T00:33:31;97755.56;;;0.47;100.00
57644;BME280;43474;46.510;6.686;2023-02-15T00:35:58;97769.56;;;0.46;100.00
57644;BME280;43474;46.510;6.686;2023-02-15T00:38:26;97766.53;;;0.61;100.00
57644;BME280;43474;46.510;6.686;2023-02-15T00:40:53;97760.50;;;0.50;100.00
57644;BME280;43474;46.510;6.686;2023-02-15T00:43:19;97759.94;;;0.57;100.00
57644;BME280;43474;46.510;6.686;2023-02-15T00:45:45;97761.84;;;0.55;100.00
57644;BME280;43474;46.510;6.686;2023-02-15T00:48:11;97755.53;;;0.57;100.00
57644;BME280;43474;46.510;6.686;2023-02-15T00:50:37;97764.34;;;0.56;100.00
57644;BME280;43474;46.510;6.686;2023-02-15T00:53:02;97759.25;;;0.55;100.00
57644;BME280;43474;46.510;6.686;2023-02-15T00:55:28;97757.03;;;0.60;100.00
57644;BME280;43474;46.510;6.686;2023-02-15T00:57:53;97753.63;;;0.49;100.00
57644;BME280;43474;46.510;6.686;2023-02-15T01:00:19;97764.19;;;0.48;100.00
57644;BME280;43474;46.510;6.686;2023-02-15T01:02:45;97762.16;;;0.51;100.00
57644;BME280;43474;46.510;6.686;2023-02-15T01:05:10;97774.38;;;0.41;100.00
57644;BME280;43474;46.510;6.686;2023-02-15T01:07:36;97765.59;;;0.33;100.00
57644;BME280;43474;46.510;6.686;2023-02-15T01:10:02;97759.97;;;0.18;100.00
57644;BME280;43474;46.510;6.686;2023-02-15T01:12:27;97753.69;;;0.20;100.00
57644;BME280;43474;46.510;6.686;2023-02-15T01:14:53;97763.41;;;0.18;100.00
57644;BME280;43474;46.510;6.686;2023-02-15T01:17:19;97758.91;;;0.20;100.00
57644;BME280;43474;46.510;6.686;2023-02-15T01:19:44;97771.38;;;0.17;100.00
57644;BME280;43474;46.510;6.686;2023-02-15T01:22:10;97754.63;;;0.10;100.00
57644;BME280;43474;46.510;6.686;2023-02-15T01:24:35;97758.59;;;0.14;100.00
57644;BME280;43474;46.510;6.686;2023-02-15T01:27:01;97758.06;;;0.20;100.00
57644;BME280;43474;46.510;6.686;2023-02-15T01:29:27;97763.81;;;0.23;100.00
57644;BME280;43474;46.510;6.686;2023-02-15T01:31:53;97769.44;;;0.29;100.00
57644;BME280;43474;46.510;6.686;2023-02-15T01:34:18;97767.66;;;0.10;100.00
57644;BME280;43474;46.510;6.686;2023-02-15T01:36:44;97764.53;;;-0.04;100.00
57644;BME280;43474;46.510;6.686;2023-02-15T01:39:10;97763.81;;;0.14;100.00
57644;BME280;43474;46.510;6.686;2023-02-15T01:41:36;97771.22;;;0.28;100.00
57644;BME280;43474;46.510;6.686;2023-02-15T01:44:02;97777.00;;;0.32;100.00
57644;BME280;43474;46.510;6.686;2023-02-15T01:46:35;97762.44;;;0.29;100.00
57644;BME280;43474;46.510;6.686;2023-02-15T01:49:14;97757.94;;;0.31;100.00
57644;BME280;43474;46.510;6.686;2023-02-15T01:51:42;97767.13;;;0.25;100.00
57644;BME280;43474;46.510;6.686;2023-02-15T01:54:17;97769.19;;;0.22;100.00
57644;BME280;43474;46.510;6.686;2023-02-15T01:56:46;97759.00;;;0.09;100.00
57644;BME280;43474;46.510;6.686;2023-02-15T01:59:19;97763.56;;;0.07;100.00
57644;BME280;43474;46.510;6.686;2023-02-15T02:01:49;97753.69;;;0.01;100.00
57644;BME280;43474;46.510;6.686;2023-02-15T02:04:20;97753.69;;;0.11;100.00
57644;BME280;43474;46.510;6.686;2023-02-15T02:06:49;97746.28;;;-0.04;100.00
57644;BME280;43474;46.510;6.686;2023-02-15T02:09:16;97751.19;;;0.09;100.00
57644;BME280;43474;46.510;6.686;2023-02-15T02:11:42;97764.53;;;0.16;100.00
57644;BME280;43474;46.510;6.686;2023-02-15T02:14:10;97753.94;;;0.17;100.00
57644;BME280;43474;46.510;6.686;2023-02-15T02:22:04;97738.31;;;0.08;100.00
57644;BME280;43474;46.510;6.686;2023-02-15T02:36:03;97741.03;;;0.35;100.00
57644;BME280;43474;46.510;6.686;2023-02-15T02:38:55;97735.84;;;0.25;100.00
57644;BME280;43474;46.510;6.686;2023-02-15T02:46:50;97730.22;;;0.11;100.00
57644;BME280;43474;46.510;6.686;2023-02-15T02:49:31;97717.88;;;0.13;100.00
57644;BME280;43474;46.510;6.686;2023-02-15T02:51:59;97738.47;;;0.06;100.00
57644;BME280;43474;46.510;6.686;2023-02-15T02:54:26;97732.53;;;0.14;100.00
57644;BME280;43474;46.510;6.686;2023-02-15T02:56:53;97724.63;;;0.06;100.00
57644;BME280;43474;46.510;6.686;2023-02-15T02:59:25;97725.13;;;0.09;100.00
57644;BME280;43474;46.510;6.686;2023-02-15T03:02:21;97725.69;;;0.03;100.00
57644;BME280;43474;46.510;6.686;2023-02-15T03:04:53;97707.59;;;-0.18;100.00
57644;BME280;43474;46.510;6.686;2023-02-15T03:07:25;97734.63;;;-0.09;100.00
57644;BME280;43474;46.510;6.686;2023-02-15T03:09:55;97733.50;;;-0.07;100.00
57644;BME280;43474;46.510;6.686;2023-02-15T03:12:24;97733.09;;;-0.02;100.00
57644;BME280;43474;46.510;6.686;2023-02-15T03:15:09;97707.88;;;-0.31;100.00
57644;BME280;43474;46.510;6.686;2023-02-15T03:17:39;97727.75;;;-0.30;100.00
57644;BME280;43474;46.510;6.686;2023-02-15T03:20:30;97731.88;;;-0.27;100.00
57644;BME280;43474;46.510;6.686;2023-02-15T03:23:03;97720.47;;;-0.26;100.00
57644;BME280;43474;46.510;6.686;2023-02-15T03:25:34;97723.78;;;-0.34;100.00
57644;BME280;43474;46.510;6.686;2023-02-15T03:28:07;97720.34;;;-0.34;100.00
57644;BME280;43474;46.510;6.686;2023-02-15T03:30:35;97729.00;;;-0.24;100.00
57644;BME280;43474;46.510;6.686;2023-02-15T03:33:02;97722.66;;;-0.31;100.00
57644;BME280;43474;46.510;6.686;2023-02-15T03:35:45;97735.69;;;-0.21;100.00
57644;BME280;43474;46.510;6.686;2023-02-15T03:38:18;97715.56;;;-0.29;100.00
57644;BME280;43474;46.510;6.686;2023-02-15T03:40:47;97718.84;;;-0.37;100.00
57644;BME280;43474;46.510;6.686;2023-02-15T03:43:53;97725.78;;;-0.57;100.00
57644;BME280;43474;46.510;6.686;2023-02-15T03:46:25;97746.91;;;-0.60;100.00
57644;BME280;43474;46.510;6.686;2023-02-15T03:48:57;97738.84;;;-0.47;100.00
57644;BME280;43474;46.510;6.686;2023-02-15T03:51:28;97730.44;;;-0.60;100.00
57644;BME280;43474;46.510;6.686;2023-02-15T03:54:14;97734.31;;;-0.55;100.00
57644;BME280;43474;46.510;6.686;2023-02-15T03:57:00;97743.50;;;-0.41;100.00
57644;BME280;43474;46.510;6.686;2023-02-15T03:59:45;97735.69;;;-0.31;100.00
57644;BME280;43474;46.510;6.686;2023-02-15T04:02:37;97734.31;;;-0.35;100.00
57644;BME280;43474;46.510;6.686;2023-02-15T04:05:03;97741.19;;;-0.44;100.00
57644;BME280;43474;46.510;6.686;2023-02-15T04:07:29;97745.28;;;-0.41;100.00
57644;BME280;43474;46.510;6.686;2023-02-15T04:09:54;97734.84;;;-0.41;100.00
57644;BME280;43474;46.510;6.686;2023-02-15T04:12:39;97747.31;;;-0.45;100.00
57644;BME280;43474;46.510;6.686;2023-02-15T04:15:04;97747.22;;;-0.34;100.00
57644;BME280;43474;46.510;6.686;2023-02-15T04:17:49;97744.34;;;-0.21;100.00
57644;BME280;43474;46.510;6.686;2023-02-15T04:20:14;97739.41;;;-0.24;100.00
57644;BME280;43474;46.510;6.686;2023-02-15T04:22:58;97744.75;;;-0.16;100.00
57644;BME280;43474;46.510;6.686;2023-02-15T04:25:42;97736.81;;;-0.34;100.00
57644;BME280;43474;46.510;6.686;2023-02-15T04:28:08;97746.41;;;-0.34;100.00
57644;BME280;43474;46.510;6.686;2023-02-15T04:30:34;97743.66;;;-0.23;100.00
57644;BME280;43474;46.510;6.686;2023-02-15T04:33:00;97735.03;;;-0.33;100.00
57644;BME280;43474;46.510;6.686;2023-02-15T04:35:25;97743.47;;;-0.50;100.00
57644;BME280;43474;46.510;6.686;2023-02-15T04:37:51;97753.63;;;-0.57;100.00
57644;BME280;43474;46.510;6.686;2023-02-15T04:40:16;97742.91;;;-0.64;100.00
57644;BME280;43474;46.510;6.686;2023-02-15T04:42:42;97743.00;;;-0.75;100.00
57644;BME280;43474;46.510;6.686;2023-02-15T04:45:08;97747.84;;;-0.61;100.00
57644;BME280;43474;46.510;6.686;2023-02-15T04:47:34;97742.56;;;-0.40;100.00
57644;BME280;43474;46.510;6.686;2023-02-15T04:49:59;97724.84;;;-0.36;100.00
57644;BME280;43474;46.510;6.686;2023-02-15T04:52:25;97734.28;;;-0.45;100.00
57644;BME280;43474;46.510;6.686;2023-02-15T04:54:50;97722.66;;;-0.41;100.00
57644;BME280;43474;46.510;6.686;2023-02-15T04:57:16;97722.13;;;-0.54;100.00
57644;BME280;43474;46.510;6.686;2023-02-15T04:59:42;97739.78;;;-0.58;100.00
57644;BME280;43474;46.510;6.686;2023-02-15T05:02:07;97738.13;;;-0.68;100.00
57644;BME280;43474;46.510;6.686;2023-02-15T05:04:34;97735.09;;;-0.64;100.00
57644;BME280;43474;46.510;6.686;2023-02-15T05:06:59;97737.31;;;-0.59;100.00
57644;BME280;43474;46.510;6.686;2023-02-15T05:09:25;97743.63;;;-0.52;100.00
57644;BME280;43474;46.510;6.686;2023-02-15T05:11:51;97739.94;;;-0.49;100.00
57644;BME280;43474;46.510;6.686;2023-02-15T05:14:16;97735.56;;;-0.39;100.00
57644;BME280;43474;46.510;6.686;2023-02-15T05:16:42;97743.25;;;-0.38;100.00
57644;BME280;43474;46.510;6.686;2023-02-15T05:19:07;97728.25;;;-0.55;100.00
57644;BME280;43474;46.510;6.686;2023-02-15T05:21:33;97734.84;;;-0.41;100.00
57644;BME280;43474;46.510;6.686;2023-02-15T05:23:59;97718.28;;;-0.40;100.00
57644;BME280;43474;46.510;6.686;2023-02-15T05:26:25;97727.22;;;-0.33;100.00
57644;BME280;43474;46.510;6.686;2023-02-15T05:29:09;97713.63;;;-0.37;100.00
57644;BME280;43474;46.510;6.686;2023-02-15T05:31:36;97728.59;;;-0.29;100.00
57644;BME280;43474;46.510;6.686;2023-02-15T05:34:02;97736.81;;;-0.14;100.00
57644;BME280;43474;46.510;6.686;2023-02-15T05:36:28;97720.22;;;-0.23;100.00
57644;BME280;43474;46.510;6.686;2023-02-15T05:38:54;97743.66;;;-0.13;100.00
57644;BME280;43474;46.510;6.686;2023-02-15T05:41:20;97734.88;;;-0.12;100.00
57644;BME280;43474;46.510;6.686;2023-02-15T05:43:45;97719.50;;;-0.25;100.00
57644;BME280;43474;46.510;6.686;2023-02-15T05:46:12;97722.00;;;-0.33;100.00
57644;BME280;43474;46.510;6.686;2023-02-15T05:48:37;97728.28;;;-0.45;100.00
57644;BME280;43474;46.510;6.686;2023-02-15T05:51:09;97743.06;;;-0.46;100.00
57644;BME280;43474;46.510;6.686;2023-02-15T05:53:36;97741.13;;;-0.63;100.00
57644;BME280;43474;46.510;6.686;2023-02-15T05:56:04;97739.91;;;-0.59;100.00
57644;BME280;43474;46.510;6.686;2023-02-15T05:58:32;97750.03;;;-0.56;100.00
57644;BME280;43474;46.510;6.686;2023-02-15T06:00:58;97752.50;;;-0.64;100.00
57644;BME280;43474;46.510;6.686;2023-02-15T06:03:24;97761.00;;;-0.62;100.00
57644;BME280;43474;46.510;6.686;2023-02-15T06:05:52;97757.41;;;-0.71;100.00
57644;BME280;43474;46.510;6.686;2023-02-15T06:08:18;97763.72;;;-0.73;100.00
57644;BME280;43474;46.510;6.686;2023-02-15T06:10:45;97742.16;;;-0.85;100.00
57644;BME280;43474;46.510;6.686;2023-02-15T06:13:10;97750.31;;;-0.69;100.00
57644;BME280;43474;46.510;6.686;2023-02-15T06:15:36;97753.56;;;-0.76;100.00
57644;BME280;43474;46.510;6.686;2023-02-15T06:18:02;97749.44;;;-0.89;100.00
57644;BME280;43474;46.510;6.686;2023-02-15T06:20:27;97769.47;;;-0.70;100.00
57644;BME280;43474;46.510;6.686;2023-02-15T06:22:53;97759.34;;;-0.73;100.00
57644;BME280;43474;46.510;6.686;2023-02-15T06:25:19;97768.50;;;-0.79;100.00
57644;BME280;43474;46.510;6.686;2023-02-15T06:27:44;97773.78;;;-0.90;100.00
57644;BME280;43474;46.510;6.686;2023-02-15T06:30:11;97760.22;;;-0.93;100.00
57644;BME280;43474;46.510;6.686;2023-02-15T06:32:36;97775.50;;;-0.69;100.00
57644;BME280;43474;46.510;6.686;2023-02-15T06:35:03;97776.88;;;-0.65;100.00
57644;BME280;43474;46.510;6.686;2023-02-15T06:37:28;97768.94;;;-0.64;100.00
57644;BME280;43474;46.510;6.686;2023-02-15T06:39:54;97785.03;;;-0.49;100.00
57644;BME280;43474;46.510;6.686;2023-02-15T06:42:19;97780.63;;;-0.48;100.00
57644;BME280;43474;46.510;6.686;2023-02-15T06:44:45;97791.06;;;-0.39;100.00
57644;BME280;43474;46.510;6.686;2023-02-15T06:47:11;97785.88;;;-0.39;100.00
57644;BME280;43474;46.510;6.686;2023-02-15T06:49:37;97799.31;;;-0.34;100.00
57644;BME280;43474;46.510;6.686;2023-02-15T06:52:03;97794.91;;;-0.43;100.00
57644;BME280;43474;46.510;6.686;2023-02-15T06:54:29;97792.72;;;-0.38;100.00
57644;BME280;43474;46.510;6.686;2023-02-15T06:56:54;97782.03;;;-0.35;100.00
57644;BME280;43474;46.510;6.686;2023-02-15T06:59:20;97790.28;;;-0.30;100.00
57644;BME280;43474;46.510;6.686;2023-02-15T07:01:46;97787.81;;;-0.21;100.00
57644;BME280;43474;46.510;6.686;2023-02-15T07:04:12;97799.06;;;-0.11;100.00
57644;BME280;43474;46.510;6.686;2023-02-15T07:06:37;97792.78;;;0.01;100.00
57644;BME280;43474;46.510;6.686;2023-02-15T07:09:03;97796.06;;;0.13;100.00
57644;BME280;43474;46.510;6.686;2023-02-15T07:11:30;97779.88;;;-0.01;100.00
57644;BME280;43474;46.510;6.686;2023-02-15T07:14:14;97797.03;;;0.12;100.00
57644;BME280;43474;46.510;6.686;2023-02-15T07:16:40;97804.69;;;-0.06;100.00
57644;BME280;43474;46.510;6.686;2023-02-15T07:19:06;97801.00;;;0.16;100.00
57644;BME280;43474;46.510;6.686;2023-02-15T07:21:33;97788.25;;;0.32;100.00
57644;BME280;43474;46.510;6.686;2023-02-15T07:23:59;97764.22;;;0.19;100.00
57644;BME280;43474;46.510;6.686;2023-02-15T07:26:25;97787.00;;;0.27;100.00
57644;BME280;43474;46.510;6.686;2023-02-15T07:28:51;97792.34;;;0.44;100.00
57644;BME280;43474;46.510;6.686;2023-02-15T07:31:16;97770.94;;;0.50;100.00
57644;BME280;43474;46.510;6.686;2023-02-15T07:33:42;97780.38;;;0.71;100.00
57644;BME280;43474;46.510;6.686;2023-02-15T07:36:08;97782.25;;;0.78;100.00
57644;BME280;43474;46.510;6.686;2023-02-15T07:38:39;97781.84;;;0.83;100.00
57644;BME280;43474;46.510;6.686;2023-02-15T07:41:07;97779.63;;;0.88;100.00
57644;BME280;43474;46.510;6.686;2023-02-15T07:43:35;97785.22;;;1.03;100.00
57644;BME280;43474;46.510;6.686;2023-02-15T07:46:06;97771.56;;;1.09;100.00
57644;BME280;43474;46.510;6.686;2023-02-15T07:48:37;97768.88;;;1.28;100.00
57644;BME280;43474;46.510;6.686;2023-02-15T07:51:04;97777.84;;;1.53;100.00
57644;BME280;43474;46.510;6.686;2023-02-15T07:53:31;97783.75;;;1.73;100.00
57644;BME280;43474;46.510;6.686;2023-02-15T07:56:05;97779.47;;;2.00;100.00
57644;BME280;43474;46.510;6.686;2023-02-15T07:58:32;97756.09;;;2.16;100.00
57644;BME280;43474;46.510;6.686;2023-02-15T08:01:26;97756.34;;;3.35;100.00
57644;BME280;43474;46.510;6.686;2023-02-15T08:03:53;97744.72;;;4.21;100.00
57644;BME280;43474;46.510;6.686;2023-02-15T08:06:20;97740.41;;;4.77;100.00
57644;BME280;43474;46.510;6.686;2023-02-15T08:08:46;97738.31;;;5.28;100.00
57644;BME280;43474;46.510;6.686;2023-02-15T08:16:32;97739.19;;;6.89;100.00
57644;BME280;43474;46.510;6.686;2023-02-15T08:19:00;97734.66;;;7.27;100.00
57644;BME280;43474;46.510;6.686;2023-02-15T08:21:28;97719.97;;;7.54;100.00
57644;BME280;43474;46.510;6.686;2023-02-15T08:23:55;97724.81;;;7.87;100.00
57644;BME280;43474;46.510;6.686;2023-02-15T08:26:21;97728.22;;;8.23;100.00
57644;BME280;43474;46.510;6.686;2023-02-15T08:28:48;97727.81;;;8.41;100.00
57644;BME280;43474;46.510;6.686;2023-02-15T08:31:14;97711.09;;;8.62;100.00
57644;BME280;43474;46.510;6.686;2023-02-15T08:33:42;97716.19;;;8.64;100.00
57644;BME280;43474;46.510;6.686;2023-02-15T08:36:11;97729.38;;;8.85;100.00
57644;BME280;43474;46.510;6.686;2023-02-15T08:38:37;97715.19;;;8.99;100.00
57644;BME280;43474;46.510;6.686;2023-02-15T08:43:36;97708.59;;;9.17;100.00
57644;BME280;43474;46.510;6.686;2023-02-15T08:46:03;97710.28;;;9.31;100.00
57644;BME280;43474;46.510;6.686;2023-02-15T08:48:28;97704.88;;;9.46;100.00
57644;BME280;43474;46.510;6.686;2023-02-15T08:50:54;97708.34;;;9.53;100.00
57644;BME280;43474;46.510;6.686;2023-02-15T08:53:19;97718.03;;;9.80;100.00
57644;BME280;43474;46.510;6.686;2023-02-15T08:55:57;97691.75;;;9.86;100.00
57644;BME280;43474;46.510;6.686;2023-02-15T08:58:33;97703.41;;;10.11;100.00
57644;BME280;43474;46.510;6.686;2023-02-15T09:01:08;97710.19;;;10.27;100.00
57644;BME280;43474;46.510;6.686;2023-02-15T09:03:34;97696.50;;;10.23;100.00
57644;BME280;43474;46.510;6.686;2023-02-15T09:06:00;97686.75;;;10.30;100.00
57644;BME280;43474;46.510;6.686;2023-02-15T09:08:27;97698.38;;;10.43;99.80
57644;BME280;43474;46.510;6.686;2023-02-15T09:10:53;97705.91;;;10.26;100.00
57644;BME280;43474;46.510;6.686;2023-02-15T09:13:20;97677.59;;;10.40;100.00
57644;BME280;43474;46.510;6.686;2023-02-15T09:15:46;97690.44;;;10.56;98.25
57644;BME280;43474;46.510;6.686;2023-02-15T09:18:11;97704.09;;;10.40;99.13
57644;BME280;43474;46.510;6.686;2023-02-15T09:20:43;97694.88;;;10.29;98.16
57644;BME280;43474;46.510;6.686;2023-02-15T09:23:09;97697.97;;;10.32;100.00
57644;BME280;43474;46.510;6.686;2023-02-15T09:25:35;97704.84;;;10.20;99.94
57644;BME280;43474;46.510;6.686;2023-02-15T09:28:00;97693.47;;;10.46;100.00
57644;BME280;43474;46.510;6.686;2023-02-15T09:30:26;97689.19;;;10.72;100.00
57644;BME280;43474;46.510;6.686;2023-02-15T09:32:51;97686.13;;;10.68;97.56
57644;BME280;43474;46.510;6.686;2023-02-15T09:35:17;97688.97;;;10.80;97.81
57644;BME280;43474;46.510;6.686;2023-02-15T09:37:43;97684.84;;;10.97;97.61
57644;BME280;43474;46.510;6.686;2023-02-15T09:40:15;97675.28;;;10.90;92.71
57644;BME280;43474;46.510;6.686;2023-02-15T09:42:58;97685.28;;;10.87;96.04
57644;BME280;43474;46.510;6.686;2023-02-15T09:45:42;97683.81;;;10.98;98.01
57644;BME280;43474;46.510;6.686;2023-02-15T09:56:53;97675.25;;;11.03;94.53
57644;BME280;43474;46.510;6.686;2023-02-15T09:59:43;97682.34;;;11.29;94.22
57644;BME280;43474;46.510;6.686;2023-02-15T10:16:22;97675.97;;;11.36;90.75
57644;BME280;43474;46.510;6.686;2023-02-15T10:21:58;97681.78;;;10.94;91.53
57644;BME280;43474;46.510;6.686;2023-02-15T10:25:28;97681.78;;;10.94;91.23
57644;BME280;43474;46.510;6.686;2023-02-15T10:27:31;97669.97;;;10.96;92.12
57644;BME280;43474;46.510;6.686;2023-02-15T10:30:09;97683.50;;;11.33;90.54
57644;BME280;43474;46.510;6.686;2023-02-15T10:32:52;97685.63;;;11.24;89.66
57644;BME280;43474;46.510;6.686;2023-02-15T10:36:03;97672.16;;;11.19;92.08
57644;BME280;43474;46.510;6.686;2023-02-15T10:38:40;97673.53;;;11.28;90.12
57644;BME280;43474;46.510;6.686;2023-02-15T10:44:09;97654.44;;;11.06;90.17
57644;BME280;43474;46.510;6.686;2023-02-15T10:46:56;97665.66;;;11.60;88.26
57644;BME280;43474;46.510;6.686;2023-02-15T10:49:37;97664.66;;;11.54;86.76
57644;BME280;43474;46.510;6.686;2023-02-15T10:52:16;97673.38;;;11.17;88.53
57644;BME280;43474;46.510;6.686;2023-02-15T10:55:13;97658.09;;;11.12;90.17
57644;BME280;43474;46.510;6.686;2023-02-15T10:57:56;97666.41;;;11.29;88.98
57644;BME280;43474;46.510;6.686;2023-02-15T11:03:11;97659.75;;;11.51;88.84
57644;BME280;43474;46.510;6.686;2023-02-15T11:08:22;97657.50;;;10.97;90.66
57644;BME280;43474;46.510;6.686;2023-02-15T11:10:54;97651.88;;;11.31;91.03
57644;BME280;43474;46.510;6.686;2023-02-15T11:13:25;97623.59;;;11.57;90.83
57644;BME280;43474;46.510;6.686;2023-02-15T11:16:01;97633.44;;;11.50;88.44
57644;BME280;43474;46.510;6.686;2023-02-15T11:18:38;97624.91;;;11.41;89.32
57644;BME280;43474;46.510;6.686;2023-02-15T11:21:28;97625.94;;;11.33;89.63
57644;BME280;43474;46.510;6.686;2023-02-15T11:23:59;97630.56;;;11.06;89.97
57644;BME280;43474;46.510;6.686;2023-02-15T11:26:45;97629.56;;;11.01;92.67
57644;BME280;43474;46.510;6.686;2023-02-15T11:29:34;97625.66;;;11.55;92.24
57644;BME280;43474;46.510;6.686;2023-02-15T11:34:40;97612.50;;;11.28;89.68
57644;BME280;43474;46.510;6.686;2023-02-15T11:37:14;97608.56;;;11.37;87.85
57644;BME280;43474;46.510;6.686;2023-02-15T11:39:42;97605.84;;;11.51;87.54
57644;BME280;43474;46.510;6.686;2023-02-15T11:42:13;97611.06;;;11.71;86.56
57644;BME280;43474;46.510;6.686;2023-02-15T11:47:17;97596.63;;;11.22;87.00
57644;BME280;43474;46.510;6.686;2023-02-15T11:49:44;97592.94;;;11.23;87.20
57644;BME280;43474;46.510;6.686;2023-02-15T11:52:13;97595.81;;;11.21;88.15
57644;BME280;43474;46.510;6.686;2023-02-15T11:54:42;97595.13;;;11.32;88.05
57644;BME280;43474;46.510;6.686;2023-02-15T11:57:15;97581.91;;;11.57;88.43
57644;BME280;43474;46.510;6.686;2023-02-15T11:59:50;97589.28;;;11.55;86.58
57644;BME280;43474;46.510;6.686;2023-02-15T12:02:21;97585.84;;;11.48;86.28
57644;BME280;43474;46.510;6.686;2023-02-15T12:04:54;97588.22;;;11.63;86.80
57644;BME280;43474;46.510;6.686;2023-02-15T12:07:36;97586.81;;;11.60;87.02
57644;BME280;43474;46.510;6.686;2023-02-15T12:10:04;97586.97;;;11.65;87.01
57644;BME280;43474;46.510;6.686;2023-02-15T12:12:40;97566.03;;;11.82;85.79
57644;BME280;43474;46.510;6.686;2023-02-15T12:15:08;97568.50;;;11.77;85.65
57644;BME280;43474;46.510;6.686;2023-02-15T12:18:00;97575.03;;;11.81;89.17
57644;BME280;43474;46.510;6.686;2023-02-15T12:20:31;97558.47;;;11.86;86.35
57644;BME280;43474;46.510;6.686;2023-02-15T12:23:03;97553.75;;;11.88;86.54
57644;BME280;43474;46.510;6.686;2023-02-15T12:25:37;97564.72;;;11.67;85.97
57644;BME280;43474;46.510;6.686;2023-02-15T12:28:28;97571.34;;;11.51;86.95
57644;BME280;43474;46.510;6.686;2023-02-15T12:30:56;97562.53;;;11.19;87.85
57644;BME280;43474;46.510;6.686;2023-02-15T12:33:35;97567.38;;;11.35;88.88
57644;BME280;43474;46.510;6.686;2023-02-15T12:36:18;97566.91;;;11.45;86.90
57644;BME280;43474;46.510;6.686;2023-02-15T12:39:03;97555.78;;;11.23;89.40
57644;BME280;43474;46.510;6.686;2023-02-15T12:41:29;97546.78;;;11.24;88.74
57644;BME280;43474;46.510;6.686;2023-02-15T12:44:17;97561.31;;;11.21;89.74
57644;BME280;43474;46.510;6.686;2023-02-15T12:47:26;97543.78;;;11.13;89.04
57644;BME280;43474;46.510;6.686;2023-02-15T12:50:07;97543.28;;;10.92;88.60
57644;BME280;43474;46.510;6.686;2023-02-15T12:52:36;97549.25;;;11.19;89.07
57644;BME280;43474;46.510;6.686;2023-02-15T12:55:23;97550.66;;;11.28;90.47
57644;BME280;43474;46.510;6.686;2023-02-15T12:58:41;97537.94;;;11.36;88.17
57644;BME280;43474;46.510;6.686;2023-02-15T13:00:43;97537.31;;;11.41;89.04
57644;BME280;43474;46.510;6.686;2023-02-15T13:03:17;97544.06;;;11.37;88.93
57644;BME280;43474;46.510;6.686;2023-02-15T13:05:46;97527.16;;;11.31;86.54
57644;BME280;43474;46.510;6.686;2023-02-15T13:08:18;97558.53;;;11.09;86.47
57644;BME280;43474;46.510;6.686;2023-02-15T13:11:09;97551.50;;;11.22;86.59
57644;BME280;43474;46.510;6.686;2023-02-15T13:13:37;97562.78;;;11.10;85.47
57644;BME280;43474;46.510;6.686;2023-02-15T13:16:13;97532.06;;;11.28;86.00
57644;BME280;43474;46.510;6.686;2023-02-15T13:18:43;97549.25;;;11.19;86.58
57644;BME280;43474;46.510;6.686;2023-02-15T13:21:15;97541.59;;;11.42;85.59
57644;BME280;43474;46.510;6.686;2023-02-15T13:23:48;97539.50;;;11.12;87.25
57644;BME280;43474;46.510;6.686;2023-02-15T13:26:19;97532.44;;;11.00;86.31
57644;BME280;43474;46.510;6.686;2023-02-15T13:28:48;97532.19;;;11.08;89.30
57644;BME280;43474;46.510;6.686;2023-02-15T13:31:18;97537.59;;;11.26;87.50
57644;BME280;43474;46.510;6.686;2023-02-15T13:33:50;97536.72;;;11.01;88.62
57644;BME280;43474;46.510;6.686;2023-02-15T13:41:17;97515.09;;;11.35;87.73
57644;BME280;43474;46.510;6.686;2023-02-15T13:46:48;97508.69;;;11.50;87.57
57644;BME280;43474;46.510;6.686;2023-02-15T13:49:37;97514.69;;;11.63;84.92
57644;BME280;43474;46.510;6.686;2023-02-15T13:52:19;97515.19;;;11.79;83.93
57644;BME280;43474;46.510;6.686;2023-02-15T14:03:27;97496.59;;;11.54;83.65
57644;BME280;43474;46.510;6.686;2023-02-15T14:11:52;97497.91;;;11.70;83.90
57644;BME280;43474;46.510;6.686;2023-02-15T14:14:58;97496.34;;;11.87;82.89
57644;BME280;43474;46.510;6.686;2023-02-15T14:17:59;97491.16;;;11.99;82.15
57644;BME280;43474;46.510;6.686;2023-02-15T14:21:01;97495.75;;;11.85;81.70
57644;BME280;43474;46.510;6.686;2023-02-15T14:31:35;97493.41;;;11.45;85.26
57644;BME280;43474;46.510;6.686;2023-02-15T14:34:02;97489.53;;;11.41;84.15
57644;BME280;43474;46.510;6.686;2023-02-15T14:36:30;97490.34;;;11.10;84.96
57644;BME280;43474;46.510;6.686;2023-02-15T14:41:57;97485.81;;;10.79;86.08
57644;BME280;43474;46.510;6.686;2023-02-15T14:44:40;97496.41;;;10.79;85.96
57644;BME280;43474;46.510;6.686;2023-02-15T14:47:21;97489.56;;;10.65;85.11
57644;BME280;43474;46.510;6.686;2023-02-15T14:49:49;97490.25;;;10.40;85.86
57644;BME280;43474;46.510;6.686;2023-02-15T14:52:15;97490.06;;;10.28;86.50
57644;BME280;43474;46.510;6.686;2023-02-15T15:02:07;97504.31;;;10.41;89.01
57644;BME280;43474;46.510;6.686;2023-02-15T15:04:45;97492.91;;;10.33;88.36
57644;BME280;43474;46.510;6.686;2023-02-15T15:07:24;97494.97;;;10.12;90.26
57644;BME280;43474;46.510;6.686;2023-02-15T15:12:52;97499.44;;;10.18;92.13